createdAt,value
2023-09-27T00:00:48.294Z,14.07
2023-09-27T00:03:14.891Z,14.45
2023-09-27T00:05:41.887Z,14.15
2023-09-27T00:08:09.071Z,15.48
2023-09-27T00:10:35.999Z,14.25
2023-09-27T00:13:03.699Z,14.13
2023-09-27T00:15:31.055Z,14.68
2023-09-27T00:17:57.622Z,14.40
2023-09-27T00:20:24.252Z,14.50
2023-09-27T00:22:50.825Z,14.07
2023-09-27T00:25:17.487Z,14.38
2023-09-27T00:27:44.134Z,13.38
2023-09-27T00:30:15.129Z,13.65
2023-09-27T00:32:43.343Z,14.73
2023-09-27T00:35:13.463Z,14.80
2023-09-27T00:37:40.144Z,14.90
2023-09-27T00:40:11.877Z,14.02
2023-09-27T00:42:38.475Z,13.52
2023-09-27T00:45:06.084Z,14.35
2023-09-27T00:47:33.795Z,14.23
2023-09-27T00:50:00.594Z,13.93
2023-09-27T00:52:27.436Z,14.18
2023-09-27T00:54:54.447Z,13.13
2023-09-27T00:57:21.756Z,14.07
2023-09-27T00:59:48.501Z,13.93
2023-09-27T01:02:15.465Z,13.65
2023-09-27T01:04:42.189Z,13.68
2023-09-27T01:07:09.230Z,13.38
2023-09-27T01:09:36.265Z,14.02
2023-09-27T01:12:05.441Z,13.45
2023-09-27T01:14:32.111Z,13.77
2023-09-27T01:17:11.355Z,14.43
2023-09-27T01:19:39.732Z,14.38
2023-09-27T01:22:06.304Z,14.65
2023-09-27T01:24:37.067Z,13.57
2023-09-27T01:27:06.666Z,14.18
2023-09-27T01:29:34.369Z,13.77
2023-09-27T01:32:01.106Z,13.82
2023-09-27T01:34:27.762Z,14.10
2023-09-27T01:36:55.514Z,14.05
2023-09-27T01:39:22.333Z,14.38
2023-09-27T01:41:48.926Z,14.60
2023-09-27T01:44:15.595Z,13.98
2023-09-27T01:46:42.263Z,13.57
2023-09-27T01:49:08.815Z,13.77
2023-09-27T01:51:35.609Z,13.07
2023-09-27T01:54:03.550Z,13.32
2023-09-27T01:56:30.223Z,12.98
2023-09-27T01:58:56.980Z,13.25
2023-09-27T02:01:23.598Z,13.95
2023-09-27T02:03:50.299Z,14.20
2023-09-27T02:06:16.942Z,14.10
2023-09-27T02:08:43.680Z,13.50
2023-09-27T02:11:10.786Z,14.35
2023-09-27T02:13:37.346Z,14.00
2023-09-27T02:16:04.012Z,13.32
2023-09-27T02:18:30.637Z,13.48
2023-09-27T02:20:57.169Z,12.85
2023-09-27T02:23:23.893Z,13.82
2023-09-27T02:25:59.991Z,15.43
2023-09-27T02:28:26.660Z,14.43
2023-09-27T02:30:53.187Z,14.98
2023-09-27T02:33:21.457Z,16.13
2023-09-27T02:35:47.960Z,16.52
2023-09-27T02:38:15.241Z,16.05
2023-09-27T02:40:43.300Z,16.58
2023-09-27T02:43:09.849Z,16.33
2023-09-27T02:45:36.452Z,16.05
2023-09-27T02:48:03.341Z,16.13
2023-09-27T02:50:30.081Z,15.38
2023-09-27T02:52:56.773Z,16.58
2023-09-27T02:55:23.414Z,16.58
2023-09-27T02:57:55.013Z,15.80
2023-09-27T03:00:22.637Z,16.08
2023-09-27T03:02:49.368Z,15.77
2023-09-27T03:05:16.370Z,16.65
2023-09-27T03:07:46.261Z,15.80
2023-09-27T03:10:13.216Z,18.17
2023-09-27T03:12:41.034Z,17.20
2023-09-27T03:15:13.838Z,18.48
2023-09-27T03:17:42.092Z,19.25
2023-09-27T03:20:17.306Z,18.63
2023-09-27T03:22:44.826Z,18.63
2023-09-27T03:25:11.540Z,18.58
2023-09-27T03:27:38.356Z,18.00
2023-09-27T03:30:08.497Z,18.95
2023-09-27T03:32:35.277Z,17.88
2023-09-27T03:35:01.957Z,17.13
2023-09-27T03:37:28.538Z,19.90
2023-09-27T03:39:56.932Z,17.63
2023-09-27T03:42:23.834Z,19.02
2023-09-27T03:44:51.132Z,19.95
2023-09-27T03:47:18.011Z,19.75
2023-09-27T03:49:44.780Z,18.77
2023-09-27T03:52:11.402Z,19.08
2023-09-27T03:54:38.063Z,18.02
2023-09-27T03:57:05.135Z,17.48
2023-09-27T03:59:31.697Z,17.15
2023-09-27T04:01:58.369Z,18.73
2023-09-27T04:04:25.517Z,17.75
2023-09-27T04:06:52.754Z,15.80
2023-09-27T04:09:19.318Z,16.30
2023-09-27T04:11:45.868Z,15.25
2023-09-27T04:14:12.760Z,15.50
2023-09-27T04:16:39.502Z,14.45
2023-09-27T04:19:06.134Z,15.93
2023-09-27T04:21:32.681Z,15.77
2023-09-27T04:24:00.768Z,15.63
2023-09-27T04:26:28.171Z,15.98
2023-09-27T04:28:55.278Z,15.93
2023-09-27T04:31:22.163Z,15.07
2023-09-27T04:33:49.183Z,15.93
2023-09-27T04:36:19.299Z,15.82
2023-09-27T04:38:46.810Z,16.05
2023-09-27T04:41:18.069Z,17.35
2023-09-27T04:43:45.923Z,16.92
2023-09-27T04:46:17.552Z,17.25
2023-09-27T04:48:47.329Z,17.38
2023-09-27T04:51:13.924Z,17.15
2023-09-27T04:53:40.703Z,17.02
2023-09-27T04:56:08.669Z,15.57
2023-09-27T04:58:36.997Z,16.73
2023-09-27T05:01:07.033Z,14.75
2023-09-27T05:03:33.961Z,15.75
2023-09-27T05:06:00.562Z,15.80
2023-09-27T05:08:30.552Z,15.30
2023-09-27T05:10:57.485Z,16.73
2023-09-27T05:13:24.480Z,16.10
2023-09-27T05:15:54.267Z,17.13
2023-09-27T05:18:23.911Z,17.85
2023-09-27T05:20:50.718Z,16.67
2023-09-27T05:23:17.596Z,16.95
2023-09-27T05:25:45.337Z,16.58
2023-09-27T05:28:12.052Z,17.27
2023-09-27T05:30:38.640Z,17.23
2023-09-27T05:33:09.007Z,17.05
2023-09-27T05:35:35.724Z,16.08
2023-09-27T05:38:02.385Z,16.38
2023-09-27T05:40:29.172Z,16.10
2023-09-27T05:42:56.905Z,14.82
2023-09-27T05:45:24.143Z,15.07
2023-09-27T05:47:50.832Z,15.07
2023-09-27T05:50:17.561Z,15.00
2023-09-27T05:52:47.574Z,14.88
2023-09-27T05:55:16.659Z,15.73
2023-09-27T05:57:43.700Z,15.77
2023-09-27T06:00:20.526Z,15.07
2023-09-27T06:02:48.490Z,15.05
2023-09-27T06:05:15.276Z,16.40
2023-09-27T06:07:41.926Z,15.68
2023-09-27T06:10:10.001Z,16.70
2023-09-27T06:12:36.552Z,15.88
2023-09-27T06:15:03.393Z,15.57
2023-09-27T06:17:30.241Z,15.50
2023-09-27T06:19:57.243Z,15.90
2023-09-27T06:22:24.145Z,15.15
2023-09-27T06:24:50.909Z,15.77
2023-09-27T06:27:18.021Z,16.27
2023-09-27T06:29:44.785Z,16.13
2023-09-27T06:32:11.645Z,16.15
2023-09-27T06:34:38.309Z,15.80
2023-09-27T06:37:04.894Z,14.93
2023-09-27T06:39:32.133Z,15.50
2023-09-27T06:41:59.372Z,15.30
2023-09-27T06:44:26.058Z,15.63
2023-09-27T06:46:53.470Z,14.98
2023-09-27T06:49:20.400Z,15.60
2023-09-27T06:51:47.015Z,15.98
2023-09-27T06:54:13.672Z,16.60
2023-09-27T06:56:41.720Z,17.85
2023-09-27T06:59:08.982Z,17.30
2023-09-27T07:01:35.948Z,19.17
2023-09-27T07:04:04.986Z,18.38
2023-09-27T07:06:31.718Z,17.42
2023-09-27T07:08:59.129Z,16.30
2023-09-27T07:11:26.157Z,16.38
2023-09-27T07:13:53.136Z,15.45
2023-09-27T07:16:28.156Z,13.50
2023-09-27T07:18:57.443Z,12.90
2023-09-27T07:21:26.099Z,12.15
2023-09-27T07:23:53.529Z,11.10
2023-09-27T07:26:20.885Z,12.85
2023-09-27T07:28:47.593Z,10.95
2023-09-27T07:31:18.304Z,11.60
2023-09-27T07:33:46.419Z,11.05
2023-09-27T07:36:13.263Z,10.30
2023-09-27T07:38:40.907Z,10.32
2023-09-27T07:41:10.132Z,9.77
2023-09-27T07:43:37.424Z,9.63
2023-09-27T07:46:07.853Z,10.18
2023-09-27T07:48:39.181Z,10.75
2023-09-27T07:51:13.301Z,10.73
2023-09-27T07:53:40.730Z,10.80
2023-09-27T07:56:10.642Z,10.93
2023-09-27T07:58:38.365Z,11.02
2023-09-27T08:01:05.961Z,10.60
2023-09-27T08:03:32.959Z,11.57
2023-09-27T08:05:59.864Z,10.75
2023-09-27T08:08:26.628Z,10.80
2023-09-27T08:10:53.987Z,11.27
2023-09-27T08:13:20.785Z,11.10
2023-09-27T08:15:50.389Z,11.02
2023-09-27T08:18:17.894Z,10.98
2023-09-27T08:20:44.782Z,11.40
2023-09-27T08:23:12.215Z,11.13
2023-09-27T08:25:39.421Z,11.73
2023-09-27T08:28:07.674Z,11.80
2023-09-27T08:30:34.752Z,12.02
2023-09-27T08:33:02.239Z,11.73
2023-09-27T08:35:29.591Z,11.82
2023-09-27T08:37:56.152Z,11.40
2023-09-27T08:40:22.912Z,11.40
2023-09-27T08:42:53.223Z,11.25
2023-09-27T08:45:20.802Z,11.80
2023-09-27T08:47:47.667Z,11.63
2023-09-27T08:50:17.434Z,11.27
2023-09-27T08:52:48.895Z,11.32
2023-09-27T08:55:17.182Z,9.98
2023-09-27T08:57:47.305Z,10.43
2023-09-27T09:00:21.154Z,10.25
2023-09-27T09:02:58.013Z,11.10
2023-09-27T09:05:27.578Z,10.90
2023-09-27T09:07:56.823Z,9.30
2023-09-27T09:10:26.462Z,9.65
2023-09-27T09:12:53.346Z,8.75
2023-09-27T09:15:30.793Z,10.15
2023-09-27T09:18:00.536Z,8.93
2023-09-27T09:20:34.272Z,8.70
2023-09-27T09:23:13.599Z,9.25
2023-09-27T09:25:45.100Z,9.07
2023-09-27T09:28:14.531Z,10.30
2023-09-27T09:30:41.949Z,9.27
2023-09-27T09:33:17.918Z,8.93
2023-09-27T09:35:44.804Z,8.85
2023-09-27T09:38:11.788Z,10.32
2023-09-27T09:41:01.994Z,9.02
2023-09-27T09:43:34.759Z,9.27
2023-09-27T09:46:04.865Z,8.75
2023-09-27T09:48:34.500Z,9.77
2023-09-27T09:51:08.849Z,9.73
2023-09-27T09:53:39.911Z,9.15
2023-09-27T09:58:48.293Z,9.30
2023-09-27T10:01:21.067Z,8.85
2023-09-27T10:03:50.985Z,8.80
2023-09-27T10:06:26.403Z,8.98
2023-09-27T10:09:02.243Z,8.23
2023-09-27T10:11:30.930Z,9.10
2023-09-27T10:13:58.249Z,8.75
2023-09-27T10:16:25.641Z,9.75
2023-09-27T10:18:55.268Z,8.52
2023-09-27T10:21:21.975Z,8.80
2023-09-27T10:23:48.994Z,8.68
2023-09-27T10:26:27.609Z,10.00
2023-09-27T10:29:11.657Z,9.13
2023-09-27T10:31:58.371Z,8.93
2023-09-27T10:34:31.522Z,9.03
2023-09-27T10:37:15.027Z,7.95
2023-09-27T10:40:20.843Z,8.13
2023-09-27T10:42:48.234Z,7.82
2023-09-27T10:45:16.156Z,8.00
2023-09-27T10:47:42.794Z,8.20
2023-09-27T10:50:11.672Z,7.55
2023-09-27T10:52:39.966Z,7.50
2023-09-27T10:55:14.193Z,7.30
2023-09-27T10:57:42.735Z,7.38
2023-09-27T11:00:13.079Z,8.27
2023-09-27T11:02:40.121Z,8.10
2023-09-27T11:05:08.220Z,8.18
2023-09-27T11:07:49.511Z,7.90
2023-09-27T11:10:33.141Z,7.70
2023-09-27T11:13:11.164Z,7.67
2023-09-27T11:15:39.366Z,7.47
2023-09-27T11:18:07.429Z,8.50
2023-09-27T11:20:34.416Z,8.05
2023-09-27T11:23:02.996Z,8.23
2023-09-27T11:25:34.453Z,7.43
2023-09-27T11:28:01.110Z,7.15
2023-09-27T11:30:31.640Z,7.05
2023-09-27T11:33:06.553Z,6.68
2023-09-27T11:35:33.475Z,7.53
2023-09-27T11:38:13.990Z,7.70
2023-09-27T11:40:44.424Z,7.55
2023-09-27T11:43:13.258Z,7.05
2023-09-27T11:45:47.392Z,6.40
2023-09-27T11:48:14.985Z,7.30
2023-09-27T11:50:42.072Z,7.17
2023-09-27T11:53:09.056Z,6.20
2023-09-27T11:55:36.605Z,7.47
2023-09-27T11:58:03.267Z,6.75
2023-09-27T12:00:30.162Z,6.32
2023-09-27T12:02:58.402Z,6.97
2023-09-27T12:05:26.178Z,6.18
2023-09-27T12:07:53.849Z,6.50
2023-09-27T12:10:20.597Z,6.18
2023-09-27T12:12:47.278Z,6.78
2023-09-27T12:15:13.893Z,6.43
2023-09-27T12:17:40.763Z,5.75
2023-09-27T12:20:15.737Z,6.22
2023-09-27T12:22:49.919Z,6.38
2023-09-27T12:25:16.476Z,6.05
2023-09-27T12:27:42.949Z,6.57
2023-09-27T12:30:10.023Z,5.93
2023-09-27T12:32:36.633Z,6.72
2023-09-27T12:35:04.168Z,6.63
2023-09-27T12:37:30.954Z,6.10
2023-09-27T12:39:57.638Z,6.70
2023-09-27T12:42:24.621Z,6.28
2023-09-27T12:44:51.191Z,5.82
2023-09-27T12:47:18.811Z,5.78
2023-09-27T12:49:45.409Z,5.80
2023-09-27T12:52:11.949Z,6.03
2023-09-27T12:54:38.544Z,6.05
2023-09-27T12:57:05.077Z,5.93
2023-09-27T12:59:31.699Z,5.68
2023-09-27T13:01:58.417Z,6.32
2023-09-27T13:04:25.142Z,5.80
2023-09-27T13:06:52.623Z,5.95
2023-09-27T13:09:19.219Z,5.60
2023-09-27T13:11:45.879Z,5.75
2023-09-27T13:14:12.754Z,5.97
2023-09-27T13:16:39.288Z,5.33
2023-09-27T13:19:06.332Z,5.80
2023-09-27T13:21:32.892Z,5.75
2023-09-27T13:23:59.409Z,5.57
2023-09-27T13:26:27.257Z,5.38
2023-09-27T13:28:54.144Z,5.43
2023-09-27T13:31:20.942Z,5.68
2023-09-27T13:33:58.950Z,5.45
2023-09-27T13:36:38.094Z,5.40
2023-09-27T13:39:06.868Z,5.55
2023-09-27T13:41:43.794Z,5.68
2023-09-27T13:44:11.942Z,5.82
2023-09-27T13:46:38.790Z,5.80
2023-09-27T13:49:05.933Z,5.75
2023-09-27T13:51:35.943Z,5.82
2023-09-27T13:54:06.376Z,5.88
2023-09-27T13:56:33.499Z,5.57
2023-09-27T13:59:00.478Z,5.82
2023-09-27T14:01:28.148Z,5.20
2023-09-27T14:03:54.805Z,5.88
2023-09-27T14:06:21.617Z,6.18
2023-09-27T14:08:51.002Z,5.65
2023-09-27T14:11:18.746Z,5.63
2023-09-27T14:13:49.188Z,5.93
2023-09-27T14:16:19.186Z,5.82
2023-09-27T14:18:46.209Z,5.78
2023-09-27T14:21:14.399Z,5.57
2023-09-27T14:23:43.323Z,6.07
2023-09-27T14:26:10.386Z,5.82
2023-09-27T14:28:37.023Z,5.95
2023-09-27T14:31:03.672Z,5.63
2023-09-27T14:33:30.305Z,5.97
2023-09-27T14:35:57.666Z,5.30
2023-09-27T14:38:24.324Z,5.88
2023-09-27T14:40:50.978Z,6.20
2023-09-27T14:43:17.716Z,6.50
2023-09-27T14:45:44.409Z,6.35
2023-09-27T14:48:11.502Z,6.05
2023-09-27T14:50:38.274Z,5.93
2023-09-27T14:53:04.965Z,5.90
2023-09-27T14:55:31.613Z,5.65
2023-09-27T14:57:59.605Z,5.32
2023-09-27T15:00:26.695Z,6.40
2023-09-27T15:02:57.137Z,5.97
2023-09-27T15:05:24.235Z,6.53
2023-09-27T15:07:51.029Z,6.18
2023-09-27T15:10:17.788Z,6.60
2023-09-27T15:12:44.399Z,6.68
2023-09-27T15:15:12.703Z,6.20
2023-09-27T15:17:43.447Z,6.60
2023-09-27T15:20:12.432Z,6.78
2023-09-27T15:22:42.349Z,6.50
2023-09-27T15:25:10.614Z,6.90
2023-09-27T15:27:37.290Z,6.82
2023-09-27T15:30:04.324Z,6.50
2023-09-27T15:32:31.017Z,6.40
2023-09-27T15:34:58.001Z,6.70
2023-09-27T15:37:24.678Z,6.50
2023-09-27T15:39:51.238Z,7.07
2023-09-27T15:42:17.845Z,6.88
2023-09-27T15:44:44.364Z,6.95
2023-09-27T15:47:14.150Z,6.95
2023-09-27T15:49:40.765Z,7.10
2023-09-27T15:52:07.379Z,6.93
2023-09-27T15:54:34.512Z,7.45
2023-09-27T15:57:01.182Z,7.35
2023-09-27T15:59:28.170Z,7.78
2023-09-27T16:01:57.569Z,7.85
2023-09-27T16:04:24.750Z,7.45
2023-09-27T16:06:52.975Z,8.30
2023-09-27T16:09:19.626Z,8.63
2023-09-27T16:11:46.500Z,8.52
2023-09-27T16:14:13.229Z,8.85
2023-09-27T16:16:39.956Z,8.77
2023-09-27T16:19:07.127Z,11.07
2023-09-27T16:21:33.711Z,8.55
2023-09-27T16:24:01.428Z,8.40
2023-09-27T16:26:28.395Z,8.55
2023-09-27T16:28:54.975Z,8.70
2023-09-27T16:31:22.364Z,9.35
2023-09-27T16:33:49.225Z,9.18
2023-09-27T16:36:18.990Z,9.00
2023-09-27T16:38:45.679Z,9.32
2023-09-27T16:41:12.219Z,9.18
2023-09-27T16:43:40.799Z,9.52
2023-09-27T16:46:08.403Z,8.90
2023-09-27T16:48:36.009Z,8.98
2023-09-27T16:51:03.149Z,8.48
2023-09-27T16:53:30.077Z,9.07
2023-09-27T16:55:56.697Z,9.38
2023-09-27T16:58:26.700Z,10.27
2023-09-27T17:00:53.607Z,11.38
2023-09-27T17:03:20.760Z,10.98
2023-09-27T17:05:47.796Z,11.18
2023-09-27T17:08:14.524Z,11.52
2023-09-27T17:10:41.662Z,10.60
2023-09-27T17:13:09.346Z,10.65
2023-09-27T17:15:35.999Z,11.00
2023-09-27T17:18:02.579Z,11.77
2023-09-27T17:20:29.228Z,11.32
2023-09-27T17:22:56.055Z,11.65
2023-09-27T17:25:22.735Z,11.07
2023-09-27T17:27:49.390Z,10.73
2023-09-27T17:30:16.704Z,11.27
2023-09-27T17:32:44.204Z,10.50
2023-09-27T17:35:11.315Z,10.90
2023-09-27T17:37:38.205Z,10.82
2023-09-27T17:40:09.083Z,11.10
2023-09-27T17:42:36.701Z,11.05
2023-09-27T17:45:04.346Z,10.52
2023-09-27T17:47:31.096Z,9.52
2023-09-27T17:49:57.812Z,10.25
2023-09-27T17:52:24.464Z,10.05
2023-09-27T17:54:51.002Z,10.32
2023-09-27T17:57:18.476Z,11.07
2023-09-27T17:59:46.566Z,11.82
2023-09-27T18:02:13.238Z,12.25
2023-09-27T18:04:40.102Z,12.75
2023-09-27T18:07:06.747Z,13.13
2023-09-27T18:09:37.135Z,13.10
2023-09-27T18:12:05.616Z,14.38
2023-09-27T18:14:32.258Z,13.82
2023-09-27T18:16:59.171Z,14.05
2023-09-27T18:19:25.954Z,15.68
2023-09-27T18:21:52.708Z,15.70
2023-09-27T18:24:19.235Z,14.70
2023-09-27T18:26:45.821Z,14.23
2023-09-27T18:29:12.407Z,13.75
2023-09-27T18:31:40.321Z,13.68
2023-09-27T18:34:07.040Z,13.32
2023-09-27T18:36:34.249Z,13.40
2023-09-27T18:39:01.304Z,12.57
2023-09-27T18:41:28.579Z,12.82
2023-09-27T18:43:55.664Z,12.43
2023-09-27T18:46:22.794Z,12.93
2023-09-27T18:48:51.574Z,11.93
2023-09-27T18:51:22.353Z,13.60
2023-09-27T18:53:50.538Z,13.23
2023-09-27T18:56:17.225Z,13.30
2023-09-27T18:58:43.825Z,13.15
2023-09-27T19:01:10.393Z,12.80
2023-09-27T19:03:36.979Z,12.55
2023-09-27T19:06:03.680Z,12.60
2023-09-27T19:08:30.226Z,12.70
2023-09-27T19:10:56.826Z,12.63
2023-09-27T19:13:23.425Z,13.38
2023-09-27T19:15:50.098Z,13.60
2023-09-27T19:18:16.636Z,14.57
2023-09-27T19:20:43.208Z,14.63
2023-09-27T19:23:09.796Z,14.60
2023-09-27T19:25:36.431Z,15.25
2023-09-27T19:28:03.550Z,15.77
2023-09-27T19:30:32.596Z,15.00
2023-09-27T19:32:59.254Z,15.05
2023-09-27T19:35:28.020Z,14.27
2023-09-27T19:37:54.619Z,14.52
2023-09-27T19:40:23.005Z,13.35
2023-09-27T19:42:49.808Z,15.35
2023-09-27T19:45:16.741Z,13.32
2023-09-27T19:47:44.416Z,14.10
2023-09-27T19:50:12.548Z,13.73
2023-09-27T19:52:39.243Z,13.20
2023-09-27T19:55:08.591Z,12.80
2023-09-27T19:57:35.221Z,12.90
2023-09-27T20:00:04.564Z,13.65
2023-09-27T20:02:32.516Z,12.77
2023-09-27T20:04:59.066Z,12.63
2023-09-27T20:07:25.647Z,12.77
2023-09-27T20:09:52.483Z,12.10
2023-09-27T20:12:19.056Z,13.25
2023-09-27T20:14:45.763Z,12.57
2023-09-27T20:17:12.540Z,12.65
2023-09-27T20:19:39.178Z,12.77
2023-09-27T20:22:05.757Z,12.98
2023-09-27T20:24:32.409Z,12.43
2023-09-27T20:26:59.615Z,12.57
2023-09-27T20:29:26.180Z,12.57
2023-09-27T20:31:52.697Z,12.20
2023-09-27T20:34:19.409Z,12.23
2023-09-27T20:36:45.961Z,12.98
2023-09-27T20:39:12.576Z,12.55
2023-09-27T20:41:39.281Z,13.32
2023-09-27T20:44:06.727Z,12.77
2023-09-27T20:46:33.553Z,16.00
2023-09-27T20:49:01.087Z,13.75
2023-09-27T20:51:27.847Z,14.07
2023-09-27T20:53:55.309Z,13.27
2023-09-27T20:56:22.255Z,13.50
2023-09-27T20:58:49.376Z,13.38
2023-09-27T21:01:30.733Z,13.10
2023-09-27T21:04:00.132Z,13.35
2023-09-27T21:06:31.100Z,13.32
2023-09-27T21:08:58.947Z,13.43
2023-09-27T21:11:25.814Z,12.65
2023-09-27T21:13:58.342Z,13.85
2023-09-27T21:16:26.483Z,13.75
2023-09-27T21:18:54.098Z,14.32
2023-09-27T21:21:23.136Z,13.70
2023-09-27T21:23:50.060Z,13.73
2023-09-27T21:26:17.062Z,13.90
2023-09-27T21:28:44.507Z,14.35
2023-09-27T21:31:14.556Z,13.65
2023-09-27T21:33:44.421Z,14.27
2023-09-27T21:36:11.330Z,14.02
2023-09-27T21:38:38.094Z,14.30
2023-09-27T21:41:04.984Z,13.73
2023-09-27T21:43:33.749Z,14.40
2023-09-27T21:46:00.905Z,14.50
2023-09-27T21:48:27.849Z,13.15
2023-09-27T21:50:54.527Z,13.23
2023-09-27T21:53:21.121Z,14.18
2023-09-27T21:55:47.720Z,13.85
2023-09-27T21:58:14.319Z,14.30
2023-09-27T22:00:40.850Z,14.05
2023-09-27T22:03:09.292Z,14.35
2023-09-27T22:05:36.093Z,14.75
2023-09-27T22:08:02.903Z,14.48
2023-09-27T22:10:35.383Z,14.57
2023-09-27T22:13:22.360Z,14.43
2023-09-27T22:15:55.858Z,14.40
2023-09-27T22:18:23.764Z,14.15
2023-09-27T22:20:50.839Z,14.45
2023-09-27T22:23:32.548Z,14.90
2023-09-27T22:26:07.469Z,14.55
2023-09-27T22:28:35.871Z,14.18
2023-09-27T22:31:02.935Z,13.93
2023-09-27T22:33:34.386Z,14.93
2023-09-27T22:36:02.136Z,14.25
2023-09-27T22:38:32.617Z,14.82
2023-09-27T22:41:03.594Z,14.55
2023-09-27T22:43:32.018Z,14.65
2023-09-27T22:46:00.155Z,15.20
2023-09-27T22:48:28.357Z,15.77
2023-09-27T22:51:00.483Z,15.52
2023-09-27T22:53:27.941Z,14.52
2023-09-27T22:56:00.218Z,15.40
2023-09-27T22:58:29.701Z,15.52
2023-09-27T23:00:59.130Z,14.95
2023-09-27T23:03:31.075Z,15.07
2023-09-27T23:05:58.552Z,14.55
2023-09-27T23:08:28.660Z,14.98
2023-09-27T23:10:58.006Z,15.13
2023-09-27T23:13:31.819Z,15.27
2023-09-27T23:16:24.587Z,15.10
2023-09-27T23:18:51.734Z,15.00
2023-09-27T23:21:25.104Z,15.00
2023-09-27T23:23:57.703Z,14.13
2023-09-27T23:26:46.678Z,15.13
2023-09-27T23:29:29.242Z,15.02
2023-09-27T23:31:58.701Z,14.75
2023-09-27T23:34:30.087Z,15.10
2023-09-27T23:37:11.968Z,15.52
2023-09-27T23:39:48.398Z,14.85
2023-09-27T23:42:24.868Z,15.70
2023-09-27T23:45:12.609Z,16.55
2023-09-27T23:47:51.173Z,15.23
2023-09-27T23:50:18.422Z,15.15
2023-09-27T23:52:47.212Z,15.80
2023-09-27T23:55:15.484Z,15.48
2023-09-27T23:57:42.696Z,16.00
